Meteo Giornale » Osservazioni meteo Stati Uniti (USA) » Belmar-Farmdale

ore: 14:56 - Osservazioni Meteo Belmar-Farmdale
Lat. 40° 11' N Lon. 74° 8' W Alt. 48 metri s.l.m.

sereno

30 °C

Sereno

Temp. 24 Ore

0 °C

30 °C

Sud

13 Km/h

Dew point 28 °C

Umidità 89 %

Visibilità  10 Km

Il sole sorge alle ore 06:24

Il sole tramonta alle ore 19:28

Data e Ora Cielo e Fenomeni T °C DP °C Um. % Pres. hPa Vis. km Vento km/h
Oggi h: 14:56 sereno Sereno 30 28 89 1014 10 S 13
Oggi h: 13:56 poco_nuvoloso Poco Nuvoloso 28 0 16 1015 10 E 7.4
Oggi h: 13:51 nuvoloso Nuvoloso 27 0 17 1015 10 E 9.3
Oggi h: 12:56 molto_nuvoloso Molto Nuvoloso 28 28 100 1016 10 E 11.1
Oggi h: 12:54 molto_nuvoloso Molto Nuvoloso 28 28 100 1016 10 N 7.4
Oggi h: 11:56 nuvoloso Nuvoloso 29 27 89 1016 10 N 0
Oggi h: 10:56 molto_nuvoloso Molto Nuvoloso 28 28 100 1016 10 O/NO 13
Oggi h: 09:56 molto_nuvoloso Molto Nuvoloso 27 0 17 1016 10 SO 11.1
Oggi h: 09:11 nuvoloso Nuvoloso 24 0 20 1016 10 SO 9.3
Oggi h: 08:56 poco_nuvoloso Poco Nuvoloso 24 0 20 1016 10 SO 11.1
Oggi h: 07:56 molto_nuvoloso Molto Nuvoloso 0 0 82 1017 14 SO 7.4
Oggi h: 07:53 molto_nuvoloso Molto Nuvoloso 0 0 100 1017 14 SO 7.4
Oggi h: 06:56 foschia Foschia 0 0 100 1016 10 SO 11.1
Oggi h: 05:56 foschia Foschia 0 0 78 1016 8 O/SO 7.4
Oggi h: 05:23 coperto Coperto 0 0 100 1017 11 SO 9.3
Oggi h: 04:56 coperto Coperto 0 0 93 1017 13 SO 7.4
Oggi h: 04:37 coperto Coperto 0 0 71 1017 13 SO 7.4
Oggi h: 03:56 coperto Coperto 0 0 87 1017 14 S/SO 7.4
Oggi h: 03:33 molto_nuvoloso Molto Nuvoloso 0 0 100 1017 10 S/SO 9.3
Oggi h: 03:26 molto_nuvoloso Molto Nuvoloso 0 0 93 1017 10 S/SO 9.3
Oggi h: 02:56 molto_nuvoloso Molto Nuvoloso 0 0 93 1017 10 S/SO 9.3
Oggi h: 02:32 coperto Coperto 0 0 100 1017 10 S/SO 9.3
Oggi h: 01:56 coperto Coperto 0 0 88 1018 10 N 0
Oggi h: 01:16 coperto Coperto 0 0 88 1018 10 S 5.5
Oggi h: 00:56 coperto Coperto 0 0 88 1018 10 S/SE 5.5
Ieri h: 23:56 molto_nuvoloso Molto Nuvoloso 21 0 24 1018 10 N 5.5
Ieri h: 22:56 molto_nuvoloso Molto Nuvoloso 21 0 24 1019 10 N 0
Ieri h: 21:56 sereno Sereno 22 0 23 1019 10 N 0
Ieri h: 20:56 coperto Coperto 22 0 23 1019 10 N 5.5
Ieri h: 19:56 molto_nuvoloso Molto Nuvoloso 22 0 23 1019 10 S/SE 7.4
Ieri h: 18:56 molto_nuvoloso Molto Nuvoloso 23 0 21 1019 10 S 7.4
Ieri h: 17:56 nuvoloso Nuvoloso 23 23 100 1019 10 S/SE 7.4
Ieri h: 16:56 nuvoloso Nuvoloso 23 23 100 1019 10 E 11.1
Ieri h: 15:56 molto_nuvoloso Molto Nuvoloso 23 23 100 1020 10 E 11.1
Ieri h: 15:42 coperto Coperto 23 23 100 1020 10 E 13